createdAt,value
2018-07-15T00:00:02.654Z,91.71
2018-07-15T00:01:02.646Z,92.29
2018-07-15T00:02:02.634Z,93.25
2018-07-15T00:03:02.628Z,92.77
2018-07-15T00:04:02.616Z,92.96
2018-07-15T00:05:02.605Z,93.15
2018-07-15T00:06:02.597Z,93.10
2018-07-15T00:07:02.589Z,94.64
2018-07-15T00:08:02.577Z,95.03
2018-07-15T00:09:02.566Z,95.50
2018-07-15T00:10:02.564Z,94.74
2018-07-15T00:11:02.747Z,95.03
2018-07-15T00:12:02.537Z,95.41
2018-07-15T00:13:02.529Z,95.98
2018-07-15T00:14:02.519Z,96.37
2018-07-15T00:15:02.508Z,97.14
2018-07-15T00:16:02.498Z,97.81
2018-07-15T00:17:02.493Z,97.76
2018-07-15T00:18:02.479Z,97.76
2018-07-15T00:19:02.470Z,98.43
2018-07-15T00:20:02.463Z,98.53
2018-07-15T00:21:02.449Z,98.91
2018-07-15T00:22:02.439Z,98.19
2018-07-15T00:23:02.430Z,98.00
2018-07-15T00:24:02.421Z,98.14
2018-07-15T00:25:02.412Z,97.95
2018-07-15T00:26:02.399Z,98.33
2018-07-15T00:27:02.389Z,98.91
2018-07-15T00:28:02.378Z,98.82
2018-07-15T00:29:02.369Z,99.29
2018-07-15T00:30:02.361Z,99.29
2018-07-15T00:31:02.349Z,99.29
2018-07-15T00:32:02.341Z,98.58
2018-07-15T00:33:02.330Z,98.33
2018-07-15T00:34:02.321Z,98.43
2018-07-15T00:35:02.308Z,98.43
2018-07-15T00:36:02.300Z,99.20
2018-07-15T00:37:02.292Z,99.01
2018-07-15T00:38:02.280Z,99.49
2018-07-15T00:39:02.267Z,99.99
2018-07-15T00:40:02.257Z,99.99
2018-07-15T00:41:02.253Z,99.99
2018-07-15T00:42:02.238Z,99.99
2018-07-15T00:43:02.227Z,99.99
2018-07-15T00:44:02.216Z,99.99
2018-07-15T00:45:02.208Z,99.99
2018-07-15T00:46:02.196Z,99.99
2018-07-15T00:47:02.186Z,99.99
2018-07-15T00:48:02.176Z,99.99
2018-07-15T00:49:02.168Z,99.99
2018-07-15T00:50:02.156Z,99.99
2018-07-15T00:51:02.145Z,99.99
2018-07-15T00:52:02.136Z,99.99
2018-07-15T00:53:02.126Z,99.99
2018-07-15T00:54:02.116Z,99.99
2018-07-15T00:55:02.106Z,99.99
2018-07-15T00:56:02.096Z,99.99
2018-07-15T00:57:02.091Z,99.99
2018-07-15T00:58:02.078Z,99.99
2018-07-15T00:59:02.065Z,99.99
2018-07-15T01:00:02.053Z,99.99
2018-07-15T01:01:02.044Z,99.99
2018-07-15T01:02:02.033Z,99.99
2018-07-15T01:03:02.023Z,99.99
2018-07-15T01:04:02.017Z,99.99
2018-07-15T01:05:02.005Z,99.99
2018-07-15T01:06:01.995Z,99.99
2018-07-15T01:07:01.982Z,99.99
2018-07-15T01:08:01.972Z,99.99
2018-07-15T01:09:01.962Z,99.99
2018-07-15T01:10:01.952Z,99.99
2018-07-15T01:11:02.143Z,99.99
2018-07-15T01:12:01.932Z,99.99
2018-07-15T01:13:01.952Z,99.99
2018-07-15T01:14:01.911Z,99.99
2018-07-15T01:15:01.898Z,99.99
2018-07-15T01:16:01.888Z,99.99
2018-07-15T01:17:01.876Z,99.99
2018-07-15T01:18:01.867Z,99.99
2018-07-15T01:19:01.858Z,99.99
2018-07-15T01:20:01.846Z,99.99
2018-07-15T01:21:01.842Z,99.99
2018-07-15T01:22:01.824Z,99.99
2018-07-15T01:23:01.820Z,99.99
2018-07-15T01:24:01.807Z,99.99
2018-07-15T01:25:01.792Z,99.99
2018-07-15T01:26:01.787Z,99.99
2018-07-15T01:27:01.773Z,99.99
2018-07-15T01:28:01.761Z,99.99
2018-07-15T01:29:01.750Z,99.99
2018-07-15T01:30:01.750Z,99.99
2018-07-15T01:31:01.731Z,99.99
2018-07-15T01:32:01.722Z,99.99
2018-07-15T01:33:01.709Z,99.99
2018-07-15T01:34:01.699Z,99.99
2018-07-15T01:35:01.688Z,99.99
2018-07-15T01:36:01.675Z,99.99
2018-07-15T01:37:01.667Z,99.99
2018-07-15T01:38:01.657Z,99.99
2018-07-15T01:39:01.645Z,99.99
2018-07-15T01:40:01.634Z,99.99
2018-07-15T01:41:01.625Z,99.99
2018-07-15T01:42:01.614Z,99.99
2018-07-15T01:43:01.610Z,99.99
2018-07-15T01:44:01.591Z,99.99
2018-07-15T01:45:01.585Z,99.99
2018-07-15T01:46:01.571Z,99.99
2018-07-15T01:47:01.558Z,99.99
2018-07-15T01:48:01.547Z,99.99
2018-07-15T01:49:01.537Z,99.99
2018-07-15T01:50:01.526Z,99.99
2018-07-15T01:51:01.514Z,99.99
2018-07-15T01:52:01.511Z,99.99
2018-07-15T01:53:01.496Z,99.99
2018-07-15T01:54:01.482Z,99.99
2018-07-15T01:55:01.473Z,99.99
2018-07-15T01:56:01.460Z,99.99
2018-07-15T01:57:01.452Z,99.99
2018-07-15T01:58:01.443Z,99.99
2018-07-15T01:59:01.628Z,99.99
2018-07-15T02:00:01.421Z,99.99
2018-07-15T02:01:01.406Z,99.99
2018-07-15T02:02:01.403Z,99.99
2018-07-15T02:03:01.391Z,99.99
2018-07-15T02:04:01.373Z,99.99
2018-07-15T02:05:01.366Z,99.99
2018-07-15T02:06:01.353Z,99.99
2018-07-15T02:07:01.342Z,99.99
2018-07-15T02:08:01.332Z,99.99
2018-07-15T02:09:01.319Z,99.99
2018-07-15T02:10:01.365Z,99.99
2018-07-15T02:11:01.301Z,99.99
2018-07-15T02:12:01.285Z,99.99
2018-07-15T02:13:01.280Z,99.99
2018-07-15T02:14:01.297Z,99.99
2018-07-15T02:15:01.259Z,99.99
2018-07-15T02:16:01.242Z,99.99
2018-07-15T02:17:01.247Z,99.99
2018-07-15T02:18:01.228Z,99.99
2018-07-15T02:19:01.209Z,99.99
2018-07-15T02:20:01.198Z,99.99
2018-07-15T02:21:01.191Z,99.99
2018-07-15T02:22:01.183Z,99.99
2018-07-15T02:23:01.166Z,99.99
2018-07-15T02:24:01.155Z,99.99
2018-07-15T02:25:01.145Z,99.99
2018-07-15T02:26:01.133Z,99.99
2018-07-15T02:27:01.131Z,99.99
2018-07-15T02:28:01.119Z,99.99
2018-07-15T02:29:01.099Z,99.99
2018-07-15T02:30:01.093Z,99.99
2018-07-15T02:31:01.087Z,99.99
2018-07-15T02:32:01.072Z,99.99
2018-07-15T02:33:01.058Z,99.99
2018-07-15T02:34:01.054Z,99.99
2018-07-15T02:35:01.039Z,99.99
2018-07-15T02:36:01.024Z,99.99
2018-07-15T02:37:01.010Z,99.99
2018-07-15T02:38:00.999Z,99.99
2018-07-15T02:39:00.992Z,99.99
2018-07-15T02:40:00.982Z,99.99
2018-07-15T02:41:01.172Z,99.99
2018-07-15T02:42:00.956Z,99.99
2018-07-15T02:43:00.951Z,99.99
2018-07-15T02:44:00.939Z,99.99
2018-07-15T02:45:00.929Z,99.99
2018-07-15T02:46:00.911Z,99.99
2018-07-15T02:47:00.901Z,99.99
2018-07-15T02:48:00.887Z,99.99
2018-07-15T02:49:00.881Z,99.99
2018-07-15T02:50:00.872Z,99.99
2018-07-15T02:51:00.855Z,99.99
2018-07-15T02:52:00.845Z,99.99
2018-07-15T02:53:00.836Z,99.99
2018-07-15T02:54:00.821Z,99.99
2018-07-15T02:55:00.812Z,99.99
2018-07-15T02:56:00.804Z,99.99
2018-07-15T02:57:00.795Z,99.99
2018-07-15T02:58:00.781Z,99.99
2018-07-15T02:59:00.763Z,99.99
2018-07-15T03:00:00.755Z,99.99
2018-07-15T03:01:00.747Z,99.99
2018-07-15T03:02:00.735Z,99.99
2018-07-15T03:03:00.722Z,99.99
2018-07-15T03:04:00.710Z,99.99
2018-07-15T03:05:00.696Z,99.99
2018-07-15T03:06:00.693Z,99.99
2018-07-15T03:07:00.678Z,99.99
2018-07-15T03:08:00.666Z,99.99
2018-07-15T03:09:00.650Z,99.99
2018-07-15T03:10:00.647Z,99.99
2018-07-15T03:11:00.635Z,99.99
2018-07-15T03:12:00.617Z,99.99
2018-07-15T03:13:00.607Z,99.99
2018-07-15T03:14:00.669Z,99.99
2018-07-15T03:15:00.581Z,99.99
2018-07-15T03:16:00.573Z,99.99
2018-07-15T03:17:00.563Z,99.99
2018-07-15T03:18:00.553Z,99.99
2018-07-15T03:19:00.545Z,99.99
2018-07-15T03:20:00.524Z,99.99
2018-07-15T03:21:00.517Z,99.99
2018-07-15T03:22:00.503Z,99.99
2018-07-15T03:23:00.490Z,99.99
2018-07-15T03:24:00.480Z,99.99
2018-07-15T03:25:00.468Z,99.99
2018-07-15T03:26:00.462Z,99.99
2018-07-15T03:27:00.447Z,99.99
2018-07-15T03:28:00.436Z,99.99
2018-07-15T03:29:00.427Z,99.99
2018-07-15T03:30:00.413Z,99.99
2018-07-15T03:31:00.400Z,99.99
2018-07-15T03:32:00.390Z,99.99
2018-07-15T03:33:00.382Z,99.99
2018-07-15T03:34:00.438Z,99.99
2018-07-15T03:35:00.353Z,99.99
2018-07-15T03:36:00.343Z,99.99
2018-07-15T03:37:00.331Z,99.99
2018-07-15T03:38:00.319Z,99.99
2018-07-15T03:39:00.309Z,99.99
2018-07-15T03:40:00.375Z,99.99
2018-07-15T03:41:00.284Z,99.99
2018-07-15T03:42:00.276Z,99.99
2018-07-15T03:43:00.261Z,99.99
2018-07-15T03:44:00.257Z,99.99
2018-07-15T03:45:00.239Z,99.99
2018-07-15T03:46:00.227Z,99.99
2018-07-15T03:47:00.216Z,99.99
2018-07-15T03:48:00.203Z,99.99
2018-07-15T03:49:00.191Z,99.99
2018-07-15T03:50:00.180Z,99.99
2018-07-15T03:51:00.168Z,99.99
2018-07-15T03:52:00.156Z,99.99
2018-07-15T03:53:00.145Z,99.99
2018-07-15T03:54:00.139Z,99.99
2018-07-15T03:55:00.121Z,99.99
2018-07-15T03:56:00.112Z,99.99
2018-07-15T03:57:00.098Z,99.99
2018-07-15T03:58:00.087Z,99.99
2018-07-15T03:59:00.074Z,99.99
2018-07-15T04:00:00.075Z,99.99
2018-07-15T04:01:00.055Z,99.99
2018-07-15T04:02:00.043Z,99.99
2018-07-15T04:03:00.030Z,99.99
2018-07-15T04:04:00.016Z,99.99
2018-07-15T04:05:00.007Z,99.99
2018-07-15T04:05:59.992Z,99.99
2018-07-15T04:06:59.983Z,99.99
2018-07-15T04:07:59.969Z,99.99
2018-07-15T04:08:59.984Z,99.99
2018-07-15T04:09:59.945Z,99.99
2018-07-15T04:10:59.932Z,99.99
2018-07-15T04:11:59.922Z,99.99
2018-07-15T04:12:59.908Z,99.99
2018-07-15T04:13:59.897Z,99.99
2018-07-15T04:14:59.885Z,99.99
2018-07-15T04:15:59.873Z,99.99
2018-07-15T04:16:59.861Z,99.99
2018-07-15T04:17:59.850Z,99.99
2018-07-15T04:18:59.837Z,99.99
2018-07-15T04:19:59.825Z,99.99
2018-07-15T04:20:59.814Z,99.99
2018-07-15T04:21:59.803Z,99.99
2018-07-15T04:22:59.792Z,99.99
2018-07-15T04:23:59.780Z,99.99
2018-07-15T04:24:59.766Z,99.99
2018-07-15T04:25:59.755Z,99.99
2018-07-15T04:26:59.743Z,99.99
2018-07-15T04:27:59.731Z,99.99
2018-07-15T04:28:59.720Z,99.99
2018-07-15T04:29:59.708Z,99.99
2018-07-15T04:30:59.695Z,99.99
2018-07-15T04:31:59.684Z,99.99
2018-07-15T04:32:59.672Z,99.99
2018-07-15T04:33:59.664Z,99.99
2018-07-15T04:34:59.649Z,99.99
2018-07-15T04:35:59.636Z,99.99
2018-07-15T04:36:59.625Z,99.99
2018-07-15T04:37:59.667Z,99.99
2018-07-15T04:38:59.601Z,99.99
2018-07-15T04:39:59.589Z,99.99
2018-07-15T04:40:59.579Z,99.99
2018-07-15T04:41:59.566Z,99.99
2018-07-15T04:42:59.553Z,99.99
2018-07-15T04:43:59.546Z,99.99
2018-07-15T04:44:59.530Z,99.99
2018-07-15T04:45:59.519Z,99.99
2018-07-15T04:46:59.506Z,99.99
2018-07-15T04:47:59.495Z,99.99
2018-07-15T04:48:59.483Z,99.99
2018-07-15T04:49:59.472Z,99.99
2018-07-15T04:50:59.458Z,99.99
2018-07-15T04:51:59.449Z,99.99
2018-07-15T04:52:59.435Z,99.99
2018-07-15T04:53:59.424Z,99.99
2018-07-15T04:54:59.411Z,99.99
2018-07-15T04:55:59.400Z,99.99
2018-07-15T04:56:59.389Z,99.99
2018-07-15T04:57:59.375Z,99.99
2018-07-15T04:58:59.367Z,99.99
2018-07-15T04:59:59.352Z,99.99
2018-07-15T05:00:59.341Z,99.99
2018-07-15T05:01:59.380Z,99.99
2018-07-15T05:02:59.315Z,99.99
2018-07-15T05:03:59.305Z,99.99
2018-07-15T05:04:59.292Z,99.99
2018-07-15T05:05:59.281Z,99.99
2018-07-15T05:06:59.269Z,99.99
2018-07-15T05:07:59.257Z,99.99
2018-07-15T05:08:59.246Z,99.99
2018-07-15T05:09:59.232Z,99.99
2018-07-15T05:10:59.419Z,99.99
2018-07-15T05:11:59.207Z,99.99
2018-07-15T05:12:59.196Z,99.99
2018-07-15T05:13:59.204Z,99.99
2018-07-15T05:14:59.173Z,99.99
2018-07-15T05:15:59.159Z,99.99
2018-07-15T05:16:59.148Z,99.99
2018-07-15T05:17:59.136Z,99.99
2018-07-15T05:18:59.125Z,99.99
2018-07-15T05:19:59.111Z,99.99
2018-07-15T05:20:59.099Z,99.99
2018-07-15T05:21:59.087Z,99.99
2018-07-15T05:22:59.078Z,99.99
2018-07-15T05:23:59.063Z,99.99
2018-07-15T05:24:59.092Z,99.99
2018-07-15T05:25:59.040Z,99.99
2018-07-15T05:26:59.028Z,99.99
2018-07-15T05:27:59.016Z,99.99
2018-07-15T05:28:59.003Z,99.99
2018-07-15T05:29:58.991Z,99.99
2018-07-15T05:30:58.978Z,99.99
2018-07-15T05:31:58.967Z,99.99
2018-07-15T05:32:58.955Z,99.99
2018-07-15T05:33:58.943Z,99.99
2018-07-15T05:34:59.194Z,99.99
2018-07-15T05:35:58.919Z,99.99
2018-07-15T05:36:58.907Z,99.99
2018-07-15T05:37:58.895Z,99.99
2018-07-15T05:38:58.882Z,99.99
2018-07-15T05:39:58.871Z,99.99
2018-07-15T05:40:58.860Z,99.99
2018-07-15T05:41:58.846Z,99.99
2018-07-15T05:42:58.834Z,99.99
2018-07-15T05:43:58.827Z,99.99
2018-07-15T05:44:58.812Z,99.99
2018-07-15T05:45:58.798Z,99.99
2018-07-15T05:46:58.785Z,99.99
2018-07-15T05:47:58.773Z,99.99
2018-07-15T05:48:58.761Z,99.99
2018-07-15T05:49:58.751Z,99.99
2018-07-15T05:50:58.737Z,99.99
2018-07-15T05:51:58.832Z,99.99
2018-07-15T05:52:58.714Z,99.99
2018-07-15T05:53:58.701Z,99.99
2018-07-15T05:54:58.688Z,99.99
2018-07-15T05:55:58.676Z,99.99
2018-07-15T05:56:58.664Z,99.99
2018-07-15T05:57:58.693Z,99.99
2018-07-15T05:58:58.838Z,99.99
2018-07-15T05:59:58.627Z,99.99
2018-07-15T06:00:58.615Z,99.99
2018-07-15T06:01:58.605Z,99.99
2018-07-15T06:02:58.590Z,99.99
2018-07-15T06:03:58.578Z,99.99
2018-07-15T06:04:58.566Z,99.99
2018-07-15T06:05:58.556Z,99.99
2018-07-15T06:06:58.541Z,99.99
2018-07-15T06:07:58.528Z,99.99
2018-07-15T06:08:58.517Z,99.99
2018-07-15T06:09:58.507Z,99.99
2018-07-15T06:10:58.492Z,99.99
2018-07-15T06:11:58.480Z,99.99
2018-07-15T06:12:58.473Z,99.99
2018-07-15T06:13:58.459Z,99.99
2018-07-15T06:14:58.445Z,99.99
2018-07-15T06:15:58.433Z,99.99
2018-07-15T06:16:58.449Z,99.99
2018-07-15T06:17:58.406Z,99.99
2018-07-15T06:18:58.394Z,99.99
2018-07-15T06:19:58.381Z,99.99
2018-07-15T06:20:58.369Z,99.99
2018-07-15T06:21:58.360Z,99.99
2018-07-15T06:22:58.544Z,99.99
2018-07-15T06:23:58.332Z,99.99
2018-07-15T06:24:58.320Z,99.99
2018-07-15T06:25:58.310Z,99.99
2018-07-15T06:26:58.295Z,99.99
2018-07-15T06:27:58.282Z,99.99
2018-07-15T06:28:58.271Z,99.99
2018-07-15T06:29:58.258Z,99.99
2018-07-15T06:30:58.291Z,99.99
2018-07-15T06:31:58.290Z,99.99
2018-07-15T06:32:58.225Z,99.99
2018-07-15T06:33:58.211Z,99.99
2018-07-15T06:34:58.198Z,99.99
2018-07-15T06:35:58.185Z,99.99
2018-07-15T06:36:58.172Z,99.99
2018-07-15T06:37:58.160Z,99.99
2018-07-15T06:38:58.146Z,99.99
2018-07-15T06:39:58.135Z,99.99
2018-07-15T06:40:58.123Z,99.99
2018-07-15T06:41:58.110Z,99.99
2018-07-15T06:42:58.097Z,99.99
2018-07-15T06:43:58.087Z,99.99
2018-07-15T06:44:58.075Z,99.99
2018-07-15T06:45:58.061Z,99.99
2018-07-15T06:46:58.047Z,99.99
2018-07-15T06:47:58.036Z,99.99
2018-07-15T06:48:58.023Z,99.99
2018-07-15T06:49:58.011Z,99.99
2018-07-15T06:50:57.998Z,99.99
2018-07-15T06:51:57.986Z,99.99
2018-07-15T06:52:58.178Z,99.99
2018-07-15T06:53:57.993Z,99.99
2018-07-15T06:54:57.948Z,99.99
2018-07-15T06:55:57.986Z,99.99
2018-07-15T06:56:57.923Z,99.99
2018-07-15T06:57:57.911Z,99.99
2018-07-15T06:58:57.898Z,99.99
2018-07-15T06:59:57.886Z,99.99
2018-07-15T07:00:57.874Z,99.99
2018-07-15T07:01:57.861Z,99.99
2018-07-15T07:02:57.848Z,99.99
2018-07-15T07:03:57.836Z,99.99
2018-07-15T07:04:57.823Z,99.99
2018-07-15T07:05:57.817Z,99.99
2018-07-15T07:06:57.797Z,99.99
2018-07-15T07:07:57.786Z,99.99
2018-07-15T07:08:57.833Z,99.99
2018-07-15T07:09:57.761Z,99.99
2018-07-15T07:10:57.948Z,99.99
2018-07-15T07:11:57.735Z,99.99
2018-07-15T07:12:57.724Z,99.99
2018-07-15T07:13:57.711Z,99.99
2018-07-15T07:14:57.699Z,99.99
2018-07-15T07:15:57.685Z,99.99
2018-07-15T07:16:57.673Z,99.99
2018-07-15T07:17:57.662Z,99.99
2018-07-15T07:18:57.646Z,99.99
2018-07-15T07:19:57.634Z,99.99
2018-07-15T07:20:57.622Z,99.99
2018-07-15T07:21:57.610Z,99.99
2018-07-15T07:22:57.597Z,99.99
2018-07-15T07:23:57.584Z,99.99
2018-07-15T07:24:57.572Z,99.99
2018-07-15T07:25:57.560Z,99.99
2018-07-15T07:26:57.547Z,99.99
2018-07-15T07:27:57.533Z,99.99
2018-07-15T07:28:57.563Z,99.99
2018-07-15T07:29:57.511Z,99.99
2018-07-15T07:30:57.497Z,99.99
2018-07-15T07:31:57.488Z,99.99
2018-07-15T07:32:57.471Z,99.99
2018-07-15T07:33:57.459Z,99.99
2018-07-15T07:34:57.645Z,99.99
2018-07-15T07:35:57.433Z,99.99
2018-07-15T07:36:57.420Z,99.99
2018-07-15T07:37:57.408Z,99.99
2018-07-15T07:38:57.400Z,99.99
2018-07-15T07:39:57.383Z,99.99
2018-07-15T07:40:57.369Z,99.99
2018-07-15T07:41:57.361Z,99.99
2018-07-15T07:42:57.344Z,99.99
2018-07-15T07:43:57.331Z,99.99
2018-07-15T07:44:57.325Z,99.99
2018-07-15T07:45:57.307Z,99.99
2018-07-15T07:46:57.300Z,99.99
2018-07-15T07:47:57.280Z,99.99
2018-07-15T07:48:57.268Z,99.99
2018-07-15T07:49:57.255Z,99.99
2018-07-15T07:50:57.243Z,99.99
2018-07-15T07:51:57.231Z,99.99
2018-07-15T07:52:57.419Z,99.99
2018-07-15T07:53:57.204Z,99.99
2018-07-15T07:54:57.192Z,99.99
2018-07-15T07:55:57.187Z,99.99
2018-07-15T07:56:57.166Z,99.99
2018-07-15T07:57:57.153Z,99.99
2018-07-15T07:58:57.140Z,99.99
2018-07-15T07:59:57.131Z,99.99
2018-07-15T08:00:57.116Z,99.99
2018-07-15T08:01:57.153Z,99.99
2018-07-15T08:02:57.090Z,99.99
2018-07-15T08:03:57.077Z,99.99
2018-07-15T08:04:57.264Z,99.99
2018-07-15T08:05:57.051Z,99.99
2018-07-15T08:06:57.038Z,99.99
2018-07-15T08:07:57.026Z,99.99
2018-07-15T08:08:57.013Z,99.99
2018-07-15T08:09:57.001Z,99.99
2018-07-15T08:10:56.987Z,99.99
2018-07-15T08:11:56.981Z,99.99
2018-07-15T08:12:56.964Z,99.99
2018-07-15T08:13:56.949Z,99.99
2018-07-15T08:14:56.936Z,99.99
2018-07-15T08:15:56.925Z,99.99
2018-07-15T08:16:56.911Z,99.99
2018-07-15T08:17:56.899Z,99.99
2018-07-15T08:18:56.889Z,99.99
2018-07-15T08:19:56.873Z,99.99
2018-07-15T08:20:56.861Z,99.99
2018-07-15T08:21:56.848Z,99.99
2018-07-15T08:22:57.036Z,99.99
2018-07-15T08:23:56.822Z,99.99
2018-07-15T08:24:56.809Z,99.99
2018-07-15T08:25:56.797Z,99.99
2018-07-15T08:26:56.783Z,99.99
2018-07-15T08:27:56.771Z,99.99
2018-07-15T08:28:56.758Z,99.99
2018-07-15T08:29:56.746Z,99.99
2018-07-15T08:30:56.732Z,99.99
2018-07-15T08:31:56.721Z,99.99
2018-07-15T08:32:56.709Z,99.99
2018-07-15T08:33:56.695Z,99.99
2018-07-15T08:34:57.013Z,99.99
2018-07-15T08:35:56.668Z,99.99
2018-07-15T08:36:56.660Z,99.99
2018-07-15T08:37:56.644Z,99.99
2018-07-15T08:38:56.632Z,99.99
2018-07-15T08:39:56.618Z,99.99
2018-07-15T08:40:56.805Z,99.99
2018-07-15T08:41:56.594Z,99.99
2018-07-15T08:42:56.580Z,99.99
2018-07-15T08:43:56.567Z,99.99
2018-07-15T08:44:56.556Z,99.99
2018-07-15T08:45:56.615Z,99.99
2018-07-15T08:46:56.528Z,99.99
2018-07-15T08:47:56.515Z,99.99
2018-07-15T08:48:56.503Z,99.99
2018-07-15T08:49:56.490Z,99.99
2018-07-15T08:50:56.477Z,99.99
2018-07-15T08:51:56.464Z,99.99
2018-07-15T08:52:56.452Z,99.99
2018-07-15T08:53:56.440Z,99.99
2018-07-15T08:54:56.425Z,99.99
2018-07-15T08:55:56.413Z,99.99
2018-07-15T08:56:56.403Z,99.99
2018-07-15T08:57:56.387Z,99.99
2018-07-15T08:58:56.374Z,99.99
2018-07-15T08:59:56.362Z,99.99
2018-07-15T09:00:56.349Z,99.99
2018-07-15T09:01:56.337Z,99.99
2018-07-15T09:02:56.323Z,99.99
2018-07-15T09:03:56.311Z,99.99
2018-07-15T09:04:56.498Z,99.99
2018-07-15T09:05:56.289Z,99.99
2018-07-15T09:06:56.272Z,99.99
2018-07-15T09:07:56.260Z,99.99
2018-07-15T09:08:56.247Z,99.99
2018-07-15T09:09:56.235Z,99.99
2018-07-15T09:10:56.221Z,99.99
2018-07-15T09:11:56.208Z,99.99
2018-07-15T09:12:56.196Z,99.99
2018-07-15T09:13:56.189Z,99.99
2018-07-15T09:14:56.171Z,99.99
2018-07-15T09:15:56.157Z,99.99
2018-07-15T09:16:56.145Z,99.99
2018-07-15T09:17:56.133Z,99.99
2018-07-15T09:18:56.118Z,99.99
2018-07-15T09:19:56.105Z,99.99
2018-07-15T09:20:56.093Z,99.99
2018-07-15T09:21:56.119Z,99.99
2018-07-15T09:22:56.067Z,99.99
2018-07-15T09:23:56.056Z,99.99
2018-07-15T09:24:56.042Z,99.99
2018-07-15T09:25:56.030Z,99.99
2018-07-15T09:26:56.016Z,99.99
2018-07-15T09:27:56.069Z,99.99
2018-07-15T09:28:56.191Z,99.99
2018-07-15T09:29:55.978Z,99.99
2018-07-15T09:30:55.964Z,99.99
2018-07-15T09:31:55.952Z,99.99
2018-07-15T09:32:55.939Z,99.99
2018-07-15T09:33:55.926Z,99.99
2018-07-15T09:34:55.913Z,99.99
2018-07-15T09:35:55.899Z,99.99
2018-07-15T09:36:55.887Z,99.99
2018-07-15T09:37:55.879Z,99.99
2018-07-15T09:38:55.861Z,99.99
2018-07-15T09:39:55.849Z,99.99
2018-07-15T09:40:56.037Z,99.99
2018-07-15T09:41:55.822Z,99.99
2018-07-15T09:42:55.809Z,99.99
2018-07-15T09:43:55.796Z,99.99
2018-07-15T09:44:55.783Z,99.99
2018-07-15T09:45:55.773Z,99.99
2018-07-15T09:46:55.757Z,99.99
2018-07-15T09:47:55.744Z,99.99
2018-07-15T09:48:55.740Z,99.99
2018-07-15T09:49:55.718Z,99.99
2018-07-15T09:50:55.705Z,99.99
2018-07-15T09:51:55.693Z,99.99
2018-07-15T09:52:55.680Z,99.99
2018-07-15T09:53:55.674Z,99.99
2018-07-15T09:54:55.653Z,99.99
2018-07-15T09:55:55.651Z,99.99
2018-07-15T09:56:55.632Z,99.99
2018-07-15T09:57:55.618Z,99.99
2018-07-15T09:58:55.802Z,99.99
2018-07-15T09:59:55.592Z,99.99
2018-07-15T10:00:55.576Z,99.99
2018-07-15T10:01:55.563Z,99.99
2018-07-15T10:02:55.549Z,99.99
2018-07-15T10:03:55.538Z,99.99
2018-07-15T10:04:55.525Z,99.99
2018-07-15T10:05:55.512Z,99.99
2018-07-15T10:06:55.498Z,99.99
2018-07-15T10:07:55.485Z,99.99
2018-07-15T10:08:55.473Z,99.99
2018-07-15T10:09:55.461Z,99.99
2018-07-15T10:10:55.446Z,99.99
2018-07-15T10:11:55.435Z,99.99
2018-07-15T10:12:55.421Z,99.99
2018-07-15T10:13:55.408Z,99.99
2018-07-15T10:14:55.396Z,99.99
2018-07-15T10:15:55.384Z,99.99
2018-07-15T10:16:55.572Z,99.99
2018-07-15T10:17:55.356Z,99.99
2018-07-15T10:18:55.369Z,99.99
2018-07-15T10:19:55.329Z,99.99
2018-07-15T10:20:55.317Z,99.99
2018-07-15T10:21:55.305Z,99.99
2018-07-15T10:22:55.290Z,99.99
2018-07-15T10:23:55.278Z,99.99
2018-07-15T10:24:55.265Z,99.99
2018-07-15T10:25:55.252Z,99.99
2018-07-15T10:26:55.239Z,99.99
2018-07-15T10:27:55.226Z,99.99
2018-07-15T10:28:55.213Z,99.99
2018-07-15T10:29:55.201Z,99.99
2018-07-15T10:30:55.187Z,99.99
2018-07-15T10:31:55.174Z,99.99
2018-07-15T10:32:55.161Z,99.99
2018-07-15T10:33:55.148Z,99.99
2018-07-15T10:34:55.134Z,99.99
2018-07-15T10:35:55.122Z,99.99
2018-07-15T10:36:55.109Z,99.99
2018-07-15T10:37:55.096Z,99.99
2018-07-15T10:38:55.157Z,99.99
2018-07-15T10:39:55.072Z,99.99
2018-07-15T10:40:55.258Z,99.99
2018-07-15T10:41:55.046Z,99.99
2018-07-15T10:42:55.032Z,99.99
2018-07-15T10:43:55.020Z,99.99
2018-07-15T10:44:55.007Z,99.99
2018-07-15T10:45:54.998Z,99.99
2018-07-15T10:46:54.981Z,99.99
2018-07-15T10:47:54.968Z,99.99
2018-07-15T10:48:54.960Z,99.99
2018-07-15T10:49:54.945Z,99.99
2018-07-15T10:50:54.931Z,99.99
2018-07-15T10:51:54.916Z,99.99
2018-07-15T10:52:54.932Z,99.99
2018-07-15T10:53:54.891Z,99.99
2018-07-15T10:54:54.878Z,99.99
2018-07-15T10:55:54.866Z,99.99
2018-07-15T10:56:54.853Z,99.99
2018-07-15T10:57:54.841Z,99.99
2018-07-15T10:58:55.028Z,99.99
2018-07-15T10:59:54.815Z,99.99
2018-07-15T11:00:54.816Z,99.99
2018-07-15T11:01:54.791Z,99.99
2018-07-15T11:02:54.778Z,99.99
2018-07-15T11:03:54.765Z,99.99
2018-07-15T11:04:54.755Z,99.99
2018-07-15T11:05:54.741Z,99.99
2018-07-15T11:06:54.727Z,99.99
2018-07-15T11:07:54.715Z,99.99
2018-07-15T11:08:54.703Z,99.99
2018-07-15T11:09:54.691Z,99.99
2018-07-15T11:10:54.678Z,99.99
2018-07-15T11:11:54.667Z,99.99
2018-07-15T11:12:54.655Z,99.99
2018-07-15T11:13:54.641Z,99.99
2018-07-15T11:14:54.628Z,99.99
2018-07-15T11:15:54.616Z,99.99
2018-07-15T11:16:54.603Z,99.99
2018-07-15T11:17:54.592Z,99.99
2018-07-15T11:18:54.580Z,99.99
2018-07-15T11:19:54.566Z,99.99
2018-07-15T11:20:54.554Z,99.99
2018-07-15T11:21:54.542Z,99.99
2018-07-15T11:22:54.529Z,99.99
2018-07-15T11:23:54.517Z,99.99
2018-07-15T11:24:54.506Z,99.99
2018-07-15T11:25:54.493Z,99.99
2018-07-15T11:26:54.480Z,99.99
2018-07-15T11:27:54.468Z,99.99
2018-07-15T11:28:54.457Z,99.99
2018-07-15T11:29:54.445Z,99.99
2018-07-15T11:30:54.529Z,99.99
2018-07-15T11:31:54.421Z,99.99
2018-07-15T11:32:54.409Z,99.99
2018-07-15T11:33:54.398Z,99.99
2018-07-15T11:34:54.385Z,99.99
2018-07-15T11:35:54.375Z,99.99
2018-07-15T11:36:54.365Z,99.99
2018-07-15T11:37:54.351Z,99.99
2018-07-15T11:38:54.348Z,99.99
2018-07-15T11:39:54.335Z,99.99
2018-07-15T11:40:54.516Z,99.99
2018-07-15T11:41:54.307Z,99.99
2018-07-15T11:42:54.292Z,99.99
2018-07-15T11:43:54.282Z,99.99
2018-07-15T11:44:54.271Z,99.99
2018-07-15T11:45:54.260Z,99.99
2018-07-15T11:46:54.248Z,99.99
2018-07-15T11:47:54.238Z,99.99
2018-07-15T11:48:54.227Z,99.99
2018-07-15T11:49:54.216Z,99.99
2018-07-15T11:50:54.205Z,99.99
2018-07-15T11:51:54.195Z,99.99
2018-07-15T11:52:54.185Z,99.99
2018-07-15T11:53:54.175Z,99.99
2018-07-15T11:54:54.164Z,99.99
2018-07-15T11:55:54.153Z,99.99
2018-07-15T11:56:54.143Z,99.99
2018-07-15T11:57:54.134Z,99.99
2018-07-15T11:58:54.123Z,99.99
2018-07-15T11:59:54.113Z,99.99
2018-07-15T12:00:54.105Z,99.99
2018-07-15T12:01:54.143Z,99.99
2018-07-15T12:02:54.084Z,99.83
2018-07-15T12:03:54.073Z,98.96
2018-07-15T12:04:54.065Z,97.81
2018-07-15T12:05:54.055Z,97.19
2018-07-15T12:06:54.047Z,95.55
2018-07-15T12:07:54.036Z,95.17
2018-07-15T12:08:54.027Z,95.26
2018-07-15T12:09:54.018Z,93.48
2018-07-15T12:10:54.008Z,92.33
2018-07-15T12:11:53.999Z,92.23
2018-07-15T12:12:53.990Z,91.17
2018-07-15T12:13:53.981Z,91.56
2018-07-15T12:14:53.971Z,91.17
2018-07-15T12:15:53.963Z,90.64
2018-07-15T12:16:53.954Z,89.78
2018-07-15T12:17:53.949Z,88.43
2018-07-15T12:18:53.948Z,88.14
2018-07-15T12:19:53.929Z,87.37
2018-07-15T12:20:53.919Z,86.74
2018-07-15T12:21:53.911Z,87.41
2018-07-15T12:22:53.904Z,86.26
2018-07-15T12:23:53.893Z,85.58
2018-07-15T12:24:53.887Z,84.18
2018-07-15T12:25:53.877Z,83.22
2018-07-15T12:26:53.869Z,82.87
2018-07-15T12:27:53.862Z,81.72
2018-07-15T12:28:53.853Z,81.62
2018-07-15T12:29:53.848Z,80.76
2018-07-15T12:30:53.837Z,80.76
2018-07-15T12:31:53.828Z,81.14
2018-07-15T12:32:53.822Z,80.56
2018-07-15T12:33:53.813Z,80.37
2018-07-15T12:34:53.806Z,79.79
2018-07-15T12:35:53.797Z,79.21
2018-07-15T12:36:53.823Z,79.25
2018-07-15T12:37:53.808Z,78.38
2018-07-15T12:38:53.788Z,79.64
2018-07-15T12:39:53.777Z,78.58
2018-07-15T12:40:53.762Z,77.61
2018-07-15T12:41:53.752Z,78.38
2018-07-15T12:42:53.751Z,77.90
2018-07-15T12:43:53.736Z,78.96
2018-07-15T12:44:53.735Z,78.19
2018-07-15T12:45:53.729Z,78.29
2018-07-15T12:46:53.715Z,77.61
2018-07-15T12:47:53.721Z,77.07
2018-07-15T12:48:53.721Z,77.13
2018-07-15T12:49:53.700Z,77.03
2018-07-15T12:50:53.694Z,77.65
2018-07-15T12:51:53.688Z,75.34